createdAt,value
2022-12-16T00:01:16.828Z,3.78
2022-12-16T00:03:18.515Z,3.78
2022-12-16T00:05:20.704Z,3.74
2022-12-16T00:07:22.363Z,3.71
2022-12-16T00:09:24.030Z,3.73
2022-12-16T00:11:25.714Z,3.74
2022-12-16T00:13:28.846Z,3.74
2022-12-16T00:15:30.630Z,3.76
2022-12-16T00:17:32.447Z,3.74
2022-12-16T00:19:34.115Z,3.74
2022-12-16T00:21:36.633Z,3.74
2022-12-16T00:23:44.576Z,3.74
2022-12-16T00:25:47.417Z,3.73
2022-12-16T00:27:49.103Z,3.73
2022-12-16T00:29:50.818Z,3.73
2022-12-16T00:31:52.514Z,3.72
2022-12-16T00:33:59.697Z,3.70
2022-12-16T00:36:01.389Z,3.70
2022-12-16T00:38:03.183Z,3.72
2022-12-16T00:40:05.508Z,3.72
2022-12-16T00:42:07.288Z,3.71
2022-12-16T00:44:09.723Z,3.69
2022-12-16T00:46:11.573Z,3.69
2022-12-16T00:48:13.405Z,3.69
2022-12-16T00:50:15.123Z,3.67
2022-12-16T00:52:16.770Z,3.72
2022-12-16T00:54:18.509Z,3.72
2022-12-16T00:56:20.181Z,3.68
2022-12-16T00:58:21.833Z,3.65
2022-12-16T01:00:23.910Z,3.70
2022-12-16T01:02:25.807Z,3.66
2022-12-16T01:04:27.694Z,3.68
2022-12-16T01:06:29.383Z,3.67
2022-12-16T01:08:31.047Z,3.68
2022-12-16T01:10:32.767Z,3.68
2022-12-16T01:12:35.560Z,3.65
2022-12-16T01:14:37.276Z,3.64
2022-12-16T01:16:39.032Z,3.65
2022-12-16T01:18:40.863Z,3.60
2022-12-16T01:20:42.656Z,3.59
2022-12-16T01:22:44.322Z,3.61
2022-12-16T01:24:46.131Z,3.63
2022-12-16T01:26:47.783Z,3.60
2022-12-16T01:28:49.547Z,3.62
2022-12-16T01:31:01.955Z,3.60
2022-12-16T01:33:03.938Z,3.62
2022-12-16T01:35:18.144Z,3.60
2022-12-16T01:37:28.323Z,3.58
2022-12-16T01:39:30.357Z,3.60
2022-12-16T01:41:32.017Z,3.63
2022-12-16T01:43:36.933Z,3.63
2022-12-16T01:45:38.960Z,3.67
2022-12-16T01:47:40.700Z,3.64
2022-12-16T01:49:55.333Z,3.64
2022-12-16T01:52:02.046Z,3.65
2022-12-16T01:54:21.646Z,3.62
2022-12-16T01:56:27.286Z,3.63
2022-12-16T01:58:34.510Z,3.64
2022-12-16T02:00:37.996Z,3.62
2022-12-16T02:02:43.932Z,3.64
2022-12-16T02:05:04.624Z,3.63
2022-12-16T02:07:06.299Z,3.58
2022-12-16T02:09:11.302Z,3.59
2022-12-16T02:11:47.680Z,3.58
2022-12-16T02:13:52.287Z,3.60
2022-12-16T02:16:27.792Z,3.60
2022-12-16T02:18:44.663Z,3.58
2022-12-16T02:21:20.200Z,3.57
2022-12-16T02:23:50.471Z,3.54
2022-12-16T02:25:59.370Z,3.52
2022-12-16T02:28:12.346Z,3.52
2022-12-16T02:30:32.888Z,3.47
2022-12-16T02:32:52.859Z,3.56
2022-12-16T02:35:22.564Z,3.53
2022-12-16T02:37:43.153Z,3.48
2022-12-16T02:40:08.906Z,3.50
2022-12-16T02:42:20.074Z,3.48
2022-12-16T02:44:35.813Z,3.45
2022-12-16T02:46:53.013Z,3.46
2022-12-16T02:49:06.261Z,3.39
2022-12-16T02:51:13.461Z,3.36
2022-12-16T02:53:15.545Z,3.38
2022-12-16T02:55:17.713Z,3.31
2022-12-16T02:57:40.374Z,3.37
2022-12-16T03:00:03.838Z,3.38
2022-12-16T03:02:19.703Z,3.39
2022-12-16T03:04:58.789Z,3.37
2022-12-16T03:07:01.638Z,3.38
2022-12-16T03:09:07.862Z,3.40
2022-12-16T03:11:09.799Z,3.38
2022-12-16T03:13:13.447Z,3.40
2022-12-16T03:15:20.340Z,3.42
2022-12-16T03:17:24.511Z,3.40
2022-12-16T03:19:28.217Z,3.41
2022-12-16T03:21:37.444Z,3.38
2022-12-16T03:23:52.770Z,3.42
2022-12-16T03:25:59.367Z,3.41
2022-12-16T03:28:16.857Z,3.35
2022-12-16T03:30:25.534Z,3.32
2022-12-16T03:32:41.401Z,3.34
2022-12-16T03:34:52.119Z,3.39
2022-12-16T03:36:56.785Z,3.26
2022-12-16T03:38:59.842Z,3.32
2022-12-16T03:41:08.706Z,3.29
2022-12-16T03:43:16.136Z,3.30
2022-12-16T03:45:24.409Z,3.29
2022-12-16T03:47:29.609Z,3.28
2022-12-16T03:49:31.384Z,3.28
2022-12-16T03:51:33.064Z,3.30
2022-12-16T03:53:35.112Z,3.29
2022-12-16T03:55:37.030Z,3.27
2022-12-16T03:57:38.665Z,3.28
2022-12-16T03:59:40.324Z,3.24
2022-12-16T04:01:42.050Z,3.29
2022-12-16T04:03:43.936Z,3.31
2022-12-16T04:05:45.909Z,3.30
2022-12-16T04:07:47.690Z,3.34
2022-12-16T04:09:49.607Z,3.31
2022-12-16T04:12:09.998Z,3.29
2022-12-16T04:14:30.126Z,3.30
2022-12-16T04:16:50.350Z,3.33
2022-12-16T04:19:10.561Z,3.32
2022-12-16T04:21:31.179Z,3.31
2022-12-16T04:23:54.200Z,3.33
2022-12-16T04:25:55.954Z,3.30
2022-12-16T04:27:58.748Z,3.29
2022-12-16T04:30:19.261Z,3.25
2022-12-16T04:32:21.133Z,3.26
2022-12-16T04:34:25.849Z,3.29
2022-12-16T04:36:46.108Z,3.27
2022-12-16T04:39:06.267Z,3.24
2022-12-16T04:41:26.474Z,3.22
2022-12-16T04:43:47.043Z,3.16
2022-12-16T04:46:07.608Z,3.19
2022-12-16T04:48:28.071Z,3.22
2022-12-16T04:50:48.555Z,3.22
2022-12-16T04:53:12.005Z,3.23
2022-12-16T04:55:32.536Z,3.22
2022-12-16T04:57:53.594Z,3.19
2022-12-16T05:00:14.258Z,3.16
2022-12-16T05:02:42.445Z,3.18
2022-12-16T05:05:02.917Z,3.18
2022-12-16T05:07:23.433Z,3.14
2022-12-16T05:09:43.785Z,3.15
2022-12-16T05:12:04.240Z,3.10
2022-12-16T05:14:24.658Z,3.08
2022-12-16T05:16:45.061Z,3.07
2022-12-16T05:19:05.471Z,3.08
2022-12-16T05:21:25.772Z,3.09
2022-12-16T05:23:46.250Z,3.05
2022-12-16T05:26:07.746Z,3.04
2022-12-16T05:28:27.947Z,3.09
2022-12-16T05:30:48.442Z,3.08
2022-12-16T05:33:09.061Z,3.06
2022-12-16T05:35:29.421Z,3.06
2022-12-16T05:37:49.885Z,3.06
2022-12-16T05:40:10.377Z,3.04
2022-12-16T05:42:30.855Z,3.04
2022-12-16T05:44:51.260Z,3.02
2022-12-16T05:47:11.800Z,3.00
2022-12-16T05:49:39.587Z,3.01
2022-12-16T05:52:00.070Z,2.97
2022-12-16T05:54:20.328Z,2.94
2022-12-16T05:56:40.772Z,2.92
2022-12-16T05:59:00.593Z,2.94
2022-12-16T06:01:20.766Z,2.90
2022-12-16T06:03:41.294Z,2.92
2022-12-16T06:06:01.856Z,2.91
2022-12-16T06:08:22.289Z,2.91
2022-12-16T06:10:42.840Z,2.86
2022-12-16T06:13:06.402Z,2.86
2022-12-16T06:15:26.961Z,2.87
2022-12-16T06:17:47.801Z,2.78
2022-12-16T06:20:08.005Z,2.78
2022-12-16T06:22:28.437Z,2.78
2022-12-16T06:24:48.363Z,2.77
2022-12-16T06:27:08.369Z,2.69
2022-12-16T06:29:28.845Z,2.72
2022-12-16T06:31:49.136Z,2.69
2022-12-16T06:34:09.459Z,2.69
2022-12-16T06:36:29.926Z,2.71
2022-12-16T06:38:50.341Z,2.70
2022-12-16T06:41:10.797Z,2.69
2022-12-16T06:43:31.322Z,2.63
2022-12-16T06:45:51.821Z,2.59
2022-12-16T06:48:12.335Z,2.56
2022-12-16T06:50:32.666Z,2.61
2022-12-16T06:52:53.069Z,2.62
2022-12-16T06:55:13.559Z,2.66
2022-12-16T06:57:34.081Z,2.66
2022-12-16T06:59:54.521Z,2.69
2022-12-16T07:02:14.726Z,2.67
2022-12-16T07:04:35.283Z,2.69
2022-12-16T07:06:55.499Z,2.70
2022-12-16T07:09:16.014Z,2.73
2022-12-16T07:12:04.597Z,2.73
2022-12-16T07:14:24.768Z,2.73
2022-12-16T07:16:45.376Z,2.71
2022-12-16T07:19:09.840Z,2.72
2022-12-16T07:21:37.922Z,2.72
2022-12-16T07:23:59.098Z,2.68
2022-12-16T07:26:19.820Z,2.67
2022-12-16T07:28:40.743Z,2.71
2022-12-16T07:31:02.840Z,2.78
2022-12-16T07:33:23.339Z,2.60
2022-12-16T07:35:44.082Z,2.68
2022-12-16T07:38:25.799Z,2.66
2022-12-16T07:40:46.287Z,2.58
2022-12-16T07:43:06.838Z,2.57
2022-12-16T07:45:28.118Z,2.66
2022-12-16T07:47:49.030Z,2.65
2022-12-16T07:50:09.498Z,2.58
2022-12-16T07:52:29.965Z,2.56
2022-12-16T07:55:07.268Z,2.52
2022-12-16T07:57:28.691Z,2.48
2022-12-16T07:59:49.046Z,2.54
2022-12-16T08:02:09.581Z,2.47
2022-12-16T08:04:29.933Z,2.51
2022-12-16T08:06:49.870Z,2.51
2022-12-16T08:09:10.099Z,2.52
2022-12-16T08:11:30.542Z,2.54
2022-12-16T08:13:50.990Z,2.48
2022-12-16T08:16:11.572Z,2.49
2022-12-16T08:18:32.114Z,2.39
2022-12-16T08:20:52.438Z,2.43
2022-12-16T08:23:15.491Z,2.39
2022-12-16T08:25:35.696Z,2.40
2022-12-16T08:28:03.941Z,2.39
2022-12-16T08:30:24.932Z,2.39
2022-12-16T08:32:45.555Z,2.35
2022-12-16T08:35:06.095Z,2.38
2022-12-16T08:37:26.433Z,2.31
2022-12-16T08:39:59.138Z,2.35
2022-12-16T08:42:27.126Z,2.33
2022-12-16T08:44:47.674Z,2.30
2022-12-16T08:47:08.351Z,2.34
2022-12-16T08:49:29.197Z,2.34
2022-12-16T08:51:49.998Z,2.31
2022-12-16T08:54:11.397Z,2.37
2022-12-16T08:56:31.918Z,2.33
2022-12-16T08:58:52.452Z,2.37
2022-12-16T09:01:12.935Z,2.36
2022-12-16T09:03:33.835Z,2.35
2022-12-16T09:05:54.330Z,2.32
2022-12-16T09:08:22.200Z,2.31
2022-12-16T09:10:42.798Z,2.31
2022-12-16T09:13:03.207Z,2.34
2022-12-16T09:15:23.656Z,2.35
2022-12-16T09:17:50.165Z,2.41
2022-12-16T09:20:11.300Z,2.45
2022-12-16T09:22:31.819Z,2.47
2022-12-16T09:24:52.385Z,2.50
2022-12-16T09:27:12.931Z,2.47
2022-12-16T09:29:33.905Z,2.43
2022-12-16T09:31:55.682Z,2.50
2022-12-16T09:34:16.336Z,2.37
2022-12-16T09:36:36.781Z,2.34
2022-12-16T09:39:10.020Z,2.44
2022-12-16T09:42:10.582Z,2.36
2022-12-16T09:44:33.896Z,2.43
2022-12-16T09:47:53.297Z,2.44
2022-12-16T09:50:14.162Z,2.38
2022-12-16T09:52:37.988Z,2.37
2022-12-16T09:55:02.770Z,2.36
2022-12-16T09:57:24.472Z,2.48
2022-12-16T09:59:49.879Z,2.45
2022-12-16T10:02:11.472Z,2.51
2022-12-16T10:04:31.878Z,2.59
2022-12-16T10:06:51.781Z,2.64
2022-12-16T10:09:22.405Z,2.65
2022-12-16T10:12:00.331Z,2.76
2022-12-16T10:14:37.317Z,2.76
2022-12-16T10:17:14.873Z,2.79
2022-12-16T10:20:13.757Z,2.88
2022-12-16T10:23:11.365Z,2.91
2022-12-16T10:26:23.122Z,2.99
2022-12-16T10:29:12.513Z,2.96
2022-12-16T10:31:35.880Z,3.07
2022-12-16T10:33:56.281Z,3.19
2022-12-16T10:36:16.846Z,3.20
2022-12-16T10:38:55.900Z,3.28
2022-12-16T10:41:19.556Z,3.35
2022-12-16T10:44:01.433Z,3.40
2022-12-16T10:46:31.565Z,3.47
2022-12-16T10:48:56.940Z,3.61
2022-12-16T10:51:19.282Z,3.57
2022-12-16T10:53:46.477Z,3.70
2022-12-16T10:56:31.807Z,3.77
2022-12-16T10:59:05.767Z,3.72
2022-12-16T11:01:44.534Z,3.79
2022-12-16T11:04:05.188Z,3.88
2022-12-16T11:06:27.188Z,3.86
2022-12-16T11:08:55.705Z,3.88
2022-12-16T11:11:40.722Z,3.96
2022-12-16T11:14:01.211Z,3.99
2022-12-16T11:16:29.515Z,3.99
2022-12-16T11:18:50.095Z,4.11
2022-12-16T11:21:35.578Z,4.17
2022-12-16T11:23:56.025Z,4.23
2022-12-16T11:26:43.452Z,4.38
2022-12-16T11:29:05.520Z,4.42
2022-12-16T11:31:54.102Z,4.39
2022-12-16T11:34:33.240Z,4.42
2022-12-16T11:36:56.963Z,4.51
2022-12-16T11:39:17.851Z,4.48
2022-12-16T11:41:46.554Z,4.56
2022-12-16T11:44:10.697Z,4.55
2022-12-16T11:46:34.448Z,4.54
2022-12-16T11:49:04.160Z,4.62
2022-12-16T11:51:31.413Z,4.62
2022-12-16T11:54:08.527Z,4.67
2022-12-16T11:56:34.670Z,4.68
2022-12-16T11:59:09.983Z,4.72
2022-12-16T12:01:45.564Z,4.81
2022-12-16T12:04:08.948Z,4.96
2022-12-16T12:06:43.813Z,4.96
2022-12-16T12:09:34.658Z,5.12
2022-12-16T12:12:01.680Z,5.16
2022-12-16T12:14:44.096Z,5.17
2022-12-16T12:17:19.412Z,5.26
2022-12-16T12:20:01.000Z,5.28
2022-12-16T12:22:29.587Z,5.38
2022-12-16T12:25:09.350Z,5.32
2022-12-16T12:27:47.841Z,5.37
2022-12-16T12:30:23.466Z,5.49
2022-12-16T12:33:01.658Z,5.56
2022-12-16T12:35:32.204Z,5.76
2022-12-16T12:38:04.218Z,5.91
2022-12-16T12:41:14.310Z,6.10
2022-12-16T12:43:54.597Z,6.24
2022-12-16T12:46:29.020Z,6.29
2022-12-16T12:49:14.093Z,6.30
2022-12-16T12:51:56.441Z,6.38
2022-12-16T12:54:22.989Z,6.40
2022-12-16T12:57:15.573Z,6.40
2022-12-16T12:59:47.110Z,6.48
2022-12-16T13:02:11.143Z,6.54
2022-12-16T13:04:36.287Z,6.59
2022-12-16T13:06:57.489Z,6.63
2022-12-16T13:09:18.475Z,6.73
2022-12-16T13:11:38.729Z,6.82
2022-12-16T13:13:59.304Z,6.89
2022-12-16T13:16:20.942Z,6.88
2022-12-16T13:18:44.191Z,6.91
2022-12-16T13:21:09.426Z,7.02
2022-12-16T13:23:49.657Z,7.03
2022-12-16T13:26:11.257Z,6.98
2022-12-16T13:28:40.254Z,6.99
2022-12-16T13:31:24.664Z,7.01
2022-12-16T13:33:50.098Z,7.05
2022-12-16T13:36:15.071Z,6.98
2022-12-16T13:38:40.302Z,6.94
2022-12-16T13:41:19.075Z,6.96
2022-12-16T13:44:05.313Z,7.05
2022-12-16T13:46:25.289Z,7.07
2022-12-16T13:48:53.733Z,7.09
2022-12-16T13:51:18.809Z,7.18
2022-12-16T13:53:43.921Z,7.11
2022-12-16T13:56:19.355Z,7.02
2022-12-16T13:59:11.220Z,7.03
2022-12-16T14:01:35.652Z,6.94
2022-12-16T14:04:03.791Z,7.06
2022-12-16T14:06:34.563Z,7.06
2022-12-16T14:09:00.014Z,7.07
2022-12-16T14:11:23.440Z,7.10
2022-12-16T14:13:50.441Z,7.17
2022-12-16T14:16:26.517Z,7.15
2022-12-16T14:19:07.534Z,7.08
2022-12-16T14:21:34.567Z,6.90
2022-12-16T14:24:04.125Z,6.85
2022-12-16T14:26:31.100Z,6.93
2022-12-16T14:28:54.223Z,6.88
2022-12-16T14:31:35.759Z,6.80
2022-12-16T14:33:56.079Z,6.76
2022-12-16T14:36:16.573Z,6.78
2022-12-16T14:38:49.835Z,6.77
2022-12-16T14:41:10.911Z,6.82
2022-12-16T14:43:36.093Z,6.74
2022-12-16T14:45:57.819Z,6.71
2022-12-16T14:48:19.206Z,6.63
2022-12-16T14:50:48.750Z,6.64
2022-12-16T14:53:09.233Z,6.65
2022-12-16T14:55:47.419Z,6.64
2022-12-16T14:58:20.990Z,6.63
2022-12-16T15:00:42.762Z,6.55
2022-12-16T15:03:06.260Z,6.55
2022-12-16T15:05:26.943Z,6.50
2022-12-16T15:07:53.449Z,6.49
2022-12-16T15:10:17.810Z,6.47
2022-12-16T15:12:42.076Z,6.47
2022-12-16T15:15:02.590Z,6.40
2022-12-16T15:17:23.256Z,6.44
2022-12-16T15:19:44.020Z,6.42
2022-12-16T15:22:06.072Z,6.44
2022-12-16T15:24:29.091Z,6.42
2022-12-16T15:26:51.885Z,6.41
2022-12-16T15:29:12.865Z,6.37
2022-12-16T15:31:41.893Z,6.36
2022-12-16T15:34:02.098Z,6.32
2022-12-16T15:36:24.059Z,6.29
2022-12-16T15:38:50.534Z,6.28
2022-12-16T15:41:11.011Z,6.29
2022-12-16T15:43:45.501Z,6.26
2022-12-16T15:46:09.539Z,6.22
2022-12-16T15:48:41.941Z,6.21
2022-12-16T15:51:11.522Z,6.18
2022-12-16T15:53:47.241Z,6.20
2022-12-16T15:56:14.940Z,6.22
2022-12-16T15:58:47.475Z,6.14
2022-12-16T16:01:19.423Z,6.05
2022-12-16T16:03:52.414Z,6.02
2022-12-16T16:06:12.736Z,6.04
2022-12-16T16:08:32.771Z,5.95
2022-12-16T16:10:53.110Z,5.83
2022-12-16T16:13:13.353Z,5.89
2022-12-16T16:15:33.791Z,5.81
2022-12-16T16:17:54.312Z,5.82
2022-12-16T16:20:14.569Z,5.82
2022-12-16T16:22:36.521Z,5.73
2022-12-16T16:25:04.272Z,5.67
2022-12-16T16:27:29.923Z,5.61
2022-12-16T16:29:50.057Z,5.58
2022-12-16T16:32:11.417Z,5.54
2022-12-16T16:34:31.750Z,5.53
2022-12-16T16:36:52.359Z,5.56
2022-12-16T16:39:12.981Z,5.46
2022-12-16T16:41:34.506Z,5.48
2022-12-16T16:43:55.023Z,5.50
2022-12-16T16:46:15.634Z,5.51
2022-12-16T16:48:36.982Z,5.46
2022-12-16T16:50:56.926Z,5.37
2022-12-16T16:53:17.448Z,5.40
2022-12-16T16:55:40.592Z,5.28
2022-12-16T16:58:01.788Z,5.30
2022-12-16T17:00:22.836Z,5.18
2022-12-16T17:02:43.740Z,5.20
2022-12-16T17:05:04.157Z,5.24
2022-12-16T17:07:24.596Z,5.20
2022-12-16T17:09:44.811Z,5.20
2022-12-16T17:12:05.144Z,5.17
2022-12-16T17:14:31.249Z,5.25
2022-12-16T17:16:51.814Z,5.28
2022-12-16T17:19:12.281Z,5.32
2022-12-16T17:21:32.729Z,5.30
2022-12-16T17:23:54.717Z,5.28
2022-12-16T17:26:15.263Z,5.24
2022-12-16T17:28:35.775Z,5.27
2022-12-16T17:30:56.416Z,5.22
2022-12-16T17:33:16.947Z,5.18
2022-12-16T17:35:37.500Z,5.18
2022-12-16T17:38:03.294Z,5.13
2022-12-16T17:40:23.815Z,5.12
2022-12-16T17:42:46.583Z,5.10
2022-12-16T17:45:07.216Z,5.09
2022-12-16T17:47:27.978Z,5.05
2022-12-16T17:49:48.310Z,5.03
2022-12-16T17:52:08.675Z,5.00
2022-12-16T17:54:29.644Z,4.91
2022-12-16T17:56:50.333Z,4.87
2022-12-16T17:59:11.334Z,4.80
2022-12-16T18:01:32.005Z,4.67
2022-12-16T18:03:52.815Z,4.69
2022-12-16T18:06:16.595Z,4.67
2022-12-16T18:08:36.968Z,4.62
2022-12-16T18:10:57.307Z,4.69
2022-12-16T18:13:17.216Z,4.70
2022-12-16T18:15:37.415Z,4.73
2022-12-16T18:18:07.061Z,4.68
2022-12-16T18:20:27.668Z,4.61
2022-12-16T18:22:48.268Z,4.62
2022-12-16T18:25:08.654Z,4.56
2022-12-16T18:27:29.174Z,4.54
2022-12-16T18:29:49.490Z,4.55
2022-12-16T18:32:20.380Z,4.40
2022-12-16T18:34:40.794Z,4.48
2022-12-16T18:37:01.328Z,4.47
2022-12-16T18:39:22.304Z,4.42
2022-12-16T18:41:42.627Z,4.42
2022-12-16T18:44:02.879Z,4.42
2022-12-16T18:46:23.341Z,4.42
2022-12-16T18:48:43.926Z,4.42
2022-12-16T18:51:12.077Z,4.45
2022-12-16T18:53:32.930Z,4.43
2022-12-16T18:56:13.388Z,4.42
2022-12-16T19:01:25.728Z,4.47
2022-12-16T19:03:46.371Z,4.51
2022-12-16T19:06:14.367Z,4.46
2022-12-16T19:08:34.419Z,4.48
2022-12-16T19:10:54.645Z,4.44
2022-12-16T19:13:18.362Z,4.39
2022-12-16T19:15:41.512Z,4.40
2022-12-16T19:18:07.524Z,4.46
2022-12-16T19:20:32.896Z,4.51
2022-12-16T19:22:53.553Z,4.46
2022-12-16T19:25:16.203Z,4.45
2022-12-16T19:27:42.241Z,4.45
2022-12-16T19:30:02.618Z,4.50
2022-12-16T19:32:23.281Z,4.54
2022-12-16T19:34:43.986Z,4.56
2022-12-16T19:37:04.116Z,4.61
2022-12-16T19:39:24.687Z,4.63
2022-12-16T19:41:45.522Z,4.64
2022-12-16T19:44:06.655Z,4.67
2022-12-16T19:46:27.328Z,4.64
2022-12-16T19:48:47.741Z,4.63
2022-12-16T19:51:07.907Z,4.63
2022-12-16T19:53:28.288Z,4.64
2022-12-16T19:55:48.560Z,4.66
2022-12-16T19:58:08.898Z,4.66
2022-12-16T20:00:30.097Z,4.61
2022-12-16T20:02:50.405Z,4.66
2022-12-16T20:05:10.756Z,4.54
2022-12-16T20:07:31.026Z,4.58
2022-12-16T20:09:54.885Z,4.53
2022-12-16T20:12:16.155Z,4.55
2022-12-16T20:14:36.671Z,4.52
2022-12-16T20:16:57.661Z,4.55
2022-12-16T20:19:18.418Z,4.54
2022-12-16T20:21:38.738Z,4.57
2022-12-16T20:23:58.801Z,4.62
2022-12-16T20:26:20.269Z,4.63
2022-12-16T20:28:40.796Z,4.53
2022-12-16T20:31:01.077Z,4.49
2022-12-16T20:33:21.436Z,4.45
2022-12-16T20:35:41.811Z,4.51
2022-12-16T20:38:03.841Z,4.52
2022-12-16T20:40:24.833Z,4.52
2022-12-16T20:42:56.447Z,4.60
2022-12-16T20:45:16.784Z,4.56
2022-12-16T20:47:42.015Z,4.52
2022-12-16T20:50:02.150Z,4.40
2022-12-16T20:52:23.340Z,4.40
2022-12-16T20:54:43.838Z,4.29
2022-12-16T20:57:05.997Z,4.18
2022-12-16T20:59:28.650Z,4.12
2022-12-16T21:02:21.219Z,4.05
2022-12-16T21:04:29.308Z,4.08
2022-12-16T21:06:49.588Z,3.94
2022-12-16T21:09:10.079Z,4.01
2022-12-16T21:11:30.638Z,4.06
2022-12-16T21:13:51.008Z,3.95
2022-12-16T21:16:12.548Z,3.92
2022-12-16T21:18:33.079Z,3.82
2022-12-16T21:20:53.246Z,3.91
2022-12-16T21:23:23.642Z,3.98
2022-12-16T21:25:44.044Z,4.07
2022-12-16T21:28:05.483Z,3.92
2022-12-16T21:30:26.200Z,3.84
2022-12-16T21:32:46.190Z,3.84
2022-12-16T21:35:06.513Z,3.87
2022-12-16T21:37:26.778Z,3.83
2022-12-16T21:39:47.159Z,3.82
2022-12-16T21:42:07.353Z,3.85
2022-12-16T21:44:27.558Z,3.90
2022-12-16T21:46:47.944Z,3.99
2022-12-16T21:49:08.106Z,4.02
2022-12-16T21:51:29.505Z,3.95
2022-12-16T21:53:49.813Z,3.86
2022-12-16T21:56:13.803Z,3.77
2022-12-16T21:58:33.870Z,3.73
2022-12-16T22:00:58.812Z,3.72
2022-12-16T22:03:21.142Z,3.73
2022-12-16T22:05:41.690Z,3.69
2022-12-16T22:08:03.254Z,3.71
2022-12-16T22:10:24.142Z,3.69
2022-12-16T22:12:44.170Z,3.85
2022-12-16T22:15:04.617Z,3.75
2022-12-16T22:17:24.723Z,3.75
2022-12-16T22:19:45.267Z,3.69
2022-12-16T22:22:06.297Z,3.64
2022-12-16T22:24:27.235Z,3.60
2022-12-16T22:26:47.529Z,3.49
2022-12-16T22:29:11.134Z,3.41
2022-12-16T22:31:31.680Z,3.38
2022-12-16T22:33:52.037Z,3.40
2022-12-16T22:36:18.842Z,3.33
2022-12-16T22:38:39.384Z,3.35
2022-12-16T22:40:59.874Z,3.24
2022-12-16T22:43:20.273Z,3.28
2022-12-16T22:45:40.787Z,3.28
2022-12-16T22:48:06.680Z,3.19
2022-12-16T22:50:27.233Z,3.21
2022-12-16T22:52:47.705Z,3.27
2022-12-16T22:55:08.286Z,3.28
2022-12-16T22:57:28.717Z,3.26
2022-12-16T22:59:49.471Z,3.27
2022-12-16T23:02:09.551Z,3.26
2022-12-16T23:04:30.196Z,3.36
2022-12-16T23:06:50.587Z,3.40
2022-12-16T23:09:10.690Z,3.42
2022-12-16T23:11:39.976Z,3.45
2022-12-16T23:14:00.482Z,3.48
2022-12-16T23:16:20.803Z,3.51
2022-12-16T23:18:40.776Z,3.57
2022-12-16T23:21:06.457Z,3.57
2022-12-16T23:23:26.981Z,3.63
2022-12-16T23:25:47.755Z,3.64
2022-12-16T23:28:09.419Z,3.62
2022-12-16T23:30:30.338Z,3.58
2022-12-16T23:32:50.206Z,3.63
2022-12-16T23:35:10.291Z,3.63
2022-12-16T23:37:30.500Z,3.63
2022-12-16T23:39:51.013Z,3.64
2022-12-16T23:42:12.384Z,3.59
2022-12-16T23:44:32.647Z,3.57
2022-12-16T23:46:53.422Z,3.56
2022-12-16T23:49:13.955Z,3.51
2022-12-16T23:51:34.351Z,3.46
2022-12-16T23:53:54.345Z,3.43
2022-12-16T23:56:18.542Z,3.34
2022-12-16T23:58:38.522Z,3.35
